Time;durP1;ratioP1;P1;durP2;ratioP2;P2;SDS_P1;SDS_P2;PMS_P1;PMS_P2;Temp;Humidity;BMP_temperature;BMP_pressure;BME280_temperature;BME280_humidity;BME280_pressure;Samples;Min_cycle;Max_cycle;Signal;HPM_P1;HPM_P2
2021/07/11 00:01:16;;;;;;;4.65;2.30;;;;;;;21.46;65.07;97653.56;5071349;28;20032;-78
2021/07/11 00:03:41;;;;;;;4.38;2.60;;;;;;;21.35;65.12;97647.03;5053398;28;20012;-80
2021/07/11 00:06:07;;;;;;;3.15;2.30;;;;;;;21.28;65.33;97642.16;5052763;28;20025;-80
2021/07/11 00:08:32;;;;;;;3.35;2.50;;;;;;;21.40;65.51;97651.47;5053094;28;20029;-78
2021/07/11 00:10:57;;;;;;;2.72;2.35;;;;;;;21.47;64.92;97652.38;5070327;28;20093;-78
2021/07/11 00:13:23;;;;;;;2.72;2.38;;;;;;;21.44;65.26;97650.34;5070693;28;20031;-79
2021/07/11 00:15:48;;;;;;;5.47;2.30;;;;;;;21.53;64.76;97641.72;5070764;28;20064;-79
2021/07/11 00:18:14;;;;;;;3.80;2.40;;;;;;;21.61;64.34;97640.66;5052877;28;20009;-78
2021/07/11 00:20:39;;;;;;;4.63;2.20;;;;;;;21.59;64.29;97643.81;5072693;28;20079;-79
2021/07/11 00:23:05;;;;;;;4.93;2.20;;;;;;;21.73;64.12;97648.81;5074728;28;20115;-79
2021/07/11 00:25:30;;;;;;;6.25;2.08;;;;;;;21.79;63.56;97631.41;5052611;28;20024;-80
2021/07/11 00:27:56;;;;;;;2.60;2.30;;;;;;;21.64;64.17;97648.28;5053147;28;20417;-80
2021/07/11 00:30:23;;;;;;;3.45;2.35;;;;;;;21.64;64.10;97645.50;5070358;28;20080;-79
2021/07/11 00:32:49;;;;;;;2.22;2.00;;;;;;;21.70;63.80;97633.66;5070442;28;20091;-79
2021/07/11 00:35:16;;;;;;;3.67;2.08;;;;;;;21.48;64.51;97636.50;5051961;28;20048;-78
2021/07/11 00:37:42;;;;;;;2.22;1.98;;;;;;;21.34;64.87;97623.94;5051663;28;20032;-79
2021/07/11 00:40:09;;;;;;;3.80;2.38;;;;;;;21.27;65.66;97637.75;5051787;28;20028;-79
2021/07/11 00:42:35;;;;;;;2.45;2.08;;;;;;;21.31;65.68;97624.69;5070024;28;20055;-78
2021/07/11 00:45:00;;;;;;;5.03;2.47;;;;;;;21.19;65.88;97624.09;5070251;28;20028;-79
2021/07/11 00:47:26;;;;;;;4.72;3.05;;;;;;;21.05;66.43;97623.84;5052069;28;20089;-80
2021/07/11 00:49:51;;;;;;;4.85;2.60;;;;;;;21.01;66.78;97623.78;5051922;28;20514;-80
2021/07/11 00:52:17;;;;;;;2.92;2.10;;;;;;;20.97;66.76;97622.09;5051843;28;20039;-79
2021/07/11 00:54:42;;;;;;;2.92;2.30;;;;;;;21.06;66.89;97622.66;5070036;28;20055;-79
2021/07/11 00:57:08;;;;;;;3.55;3.22;;;;;;;21.16;66.62;97625.66;5051511;28;20422;-80
2021/07/11 00:59:36;;;;;;;4.95;2.65;;;;;;;21.04;66.77;97617.47;5068961;28;20595;-78
2021/07/11 01:02:11;;;;;;;4.20;3.15;;;;;;;21.50;65.45;97634.13;5052413;28;20027;-79
2021/07/11 01:04:51;;;;;;;3.25;1.95;;;;;;;21.21;66.79;97621.75;5051677;28;20051;-78
2021/07/11 01:07:30;;;;;;;4.25;2.58;;;;;;;20.94;67.78;97623.66;5069304;28;20059;-78
2021/07/11 01:10:03;;;;;;;3.13;2.70;;;;;;;20.98;68.26;97616.19;5048877;28;20020;-78
2021/07/11 01:12:31;;;;;;;3.60;2.60;;;;;;;21.27;67.06;97623.03;5051617;28;20039;-78
2021/07/11 01:14:57;;;;;;;4.43;2.38;;;;;;;21.26;67.07;97624.22;5051821;28;20056;-80
2021/07/11 01:17:25;;;;;;;4.35;3.10;;;;;;;21.15;67.88;97612.09;5069729;28;20056;-78
2021/07/11 01:20:06;;;;;;;3.75;2.55;;;;;;;21.16;68.03;97614.53;5051630;28;20094;-79
2021/07/11 01:22:39;;;;;;;5.70;3.33;;;;;;;20.99;68.93;97615.00;5051669;28;20643;-81
2021/07/11 01:25:11;;;;;;;5.03;2.67;;;;;;;21.02;68.65;97625.38;5051686;28;20068;-80
2021/07/11 01:27:38;;;;;;;2.38;1.95;;;;;;;21.17;67.88;97610.56;5051514;28;20144;-79
2021/07/11 01:30:07;;;;;;;4.00;2.28;;;;;;;21.02;67.46;97586.44;5069262;28;20053;-78
2021/07/11 01:32:34;;;;;;;3.70;2.05;;;;;;;21.14;67.22;97600.19;5067243;28;20115;-78
2021/07/11 01:35:02;;;;;;;4.70;2.63;;;;;;;21.18;67.62;97601.03;5066721;28;20024;-78
2021/07/11 01:37:29;;;;;;;7.22;3.33;;;;;;;21.02;68.13;97603.13;5066011;28;20055;-78
2021/07/11 01:39:55;;;;;;;5.10;2.53;;;;;;;21.10;67.87;97593.75;5069795;28;20584;-78
2021/07/11 01:42:21;;;;;;;3.42;2.53;;;;;;;20.87;68.42;97595.72;5069470;28;20116;-79
2021/07/11 01:44:47;;;;;;;2.75;2.53;;;;;;;20.79;68.83;97591.22;5069241;28;20424;-79
2021/07/11 01:47:13;;;;;;;3.50;2.30;;;;;;;21.14;67.21;97583.50;5060578;28;20029;-78
2021/07/11 01:49:40;;;;;;;3.55;2.65;;;;;;;21.09;67.68;97602.47;5058640;28;20643;-79
2021/07/11 01:52:06;;;;;;;6.40;2.63;;;;;;;21.45;66.54;97609.41;5065836;28;20083;-79
2021/07/11 01:54:31;;;;;;;3.22;2.50;;;;;;;21.27;66.93;97604.34;5051221;28;20025;-78
2021/07/11 01:56:57;;;;;;;4.75;3.15;;;;;;;21.38;66.74;97598.97;5051399;28;20032;-79
2021/07/11 01:59:22;;;;;;;4.45;2.47;;;;;;;21.46;66.00;97599.88;5051269;28;20032;-79
2021/07/11 02:01:48;;;;;;;5.47;2.55;;;;;;;21.33;67.05;97593.72;5069334;28;20050;-77
2021/07/11 02:04:13;;;;;;;3.83;2.50;;;;;;;21.23;67.42;97591.59;5069437;28;20039;-78
2021/07/11 02:06:39;;;;;;;8.80;2.65;;;;;;;21.26;67.89;97602.78;5067646;28;20078;-80
2021/07/11 02:09:07;;;;;;;3.13;2.75;;;;;;;21.42;67.92;97605.41;5060662;28;20785;-78
2021/07/11 02:11:36;;;;;;;4.95;2.92;;;;;;;21.51;67.08;97600.34;5060990;28;20108;-78
2021/07/11 02:14:07;;;;;;;4.15;2.28;;;;;;;21.20;67.62;97587.56;5056498;28;20032;-78
2021/07/11 02:16:36;;;;;;;4.07;2.60;;;;;;;21.31;68.40;97605.22;5056988;28;20029;-79
2021/07/11 02:19:02;;;;;;;4.13;2.83;;;;;;;21.15;68.36;97596.22;5072763;28;20456;-81
2021/07/11 02:21:28;;;;;;;4.47;2.60;;;;;;;21.05;69.01;97591.25;5056225;28;20020;-78
2021/07/11 02:23:54;;;;;;;2.45;2.25;;;;;;;21.33;68.97;97602.84;5054780;28;20450;-79
2021/07/11 02:26:23;;;;;;;5.63;2.17;;;;;;;21.46;68.40;97597.09;5072483;28;20028;-78
2021/07/11 02:28:51;;;;;;;4.32;2.42;;;;;;;21.24;68.20;97598.72;5054658;28;20401;-78
2021/07/11 02:31:17;;;;;;;3.30;2.22;;;;;;;21.04;68.59;97589.66;5072709;28;20066;-78
2021/07/11 02:33:44;;;;;;;4.53;2.80;;;;;;;21.12;69.00;97601.72;5072582;28;20024;-79
2021/07/11 02:36:14;;;;;;;4.20;2.42;;;;;;;21.11;69.23;97589.78;5054314;28;20025;-80
2021/07/11 02:38:51;;;;;;;3.17;2.40;;;;;;;21.03;69.59;97588.03;5055482;28;20406;-79
2021/07/11 02:41:20;;;;;;;3.08;2.40;;;;;;;20.93;69.29;97594.22;5077138;28;20048;-79
2021/07/11 02:43:47;;;;;;;3.67;2.17;;;;;;;20.82;69.61;97584.91;5051301;28;20508;-79
2021/07/11 02:46:18;;;;;;;4.55;2.45;;;;;;;20.77;70.15;97583.25;5071662;28;20035;-78
2021/07/11 02:48:45;;;;;;;2.60;2.30;;;;;;;20.68;70.17;97581.88;5071612;28;20037;-79
2021/07/11 02:51:15;;;;;;;2.60;2.22;;;;;;;20.89;70.19;97576.69;5053912;28;20121;-78
2021/07/11 02:53:43;;;;;;;3.33;2.63;;;;;;;20.98;69.83;97576.44;5054165;28;20477;-79
2021/07/11 02:56:10;;;;;;;3.38;2.50;;;;;;;20.62;70.97;97572.25;5054104;28;20028;-77
2021/07/11 02:58:37;;;;;;;5.63;2.67;;;;;;;20.49;71.72;97568.84;5053704;28;20025;-80
2021/07/11 03:01:04;;;;;;;4.35;3.83;;;;;;;20.77;70.32;97569.34;5052922;28;20036;-80
2021/07/11 03:03:31;;;;;;;5.30;3.05;;;;;;;20.78;70.56;97586.81;5053660;28;20020;-78
2021/07/11 03:05:56;;;;;;;6.05;3.10;;;;;;;20.92;69.84;97580.72;5071698;28;20099;-78
2021/07/11 03:08:21;;;;;;;6.25;3.22;;;;;;;20.90;69.98;97578.28;5054537;28;20162;-79
2021/07/11 03:10:48;;;;;;;3.50;2.60;;;;;;;20.62;70.82;97572.25;5071865;28;20040;-79
2021/07/11 03:13:15;;;;;;;7.78;2.90;;;;;;;20.80;70.13;97565.00;5054088;28;20112;-79
2021/07/11 03:15:41;;;;;;;3.40;2.80;;;;;;;20.91;70.02;97568.78;5071748;28;20036;-80
2021/07/11 03:18:06;;;;;;;3.08;2.45;;;;;;;20.76;70.07;97570.53;5071791;28;20050;-77
2021/07/11 03:20:32;;;;;;;7.75;2.30;;;;;;;20.58;70.77;97580.50;5071551;28;20051;-79
2021/07/11 03:22:59;;;;;;;2.88;2.50;;;;;;;20.40;71.15;97564.69;5071187;28;20078;-79
2021/07/11 03:25:25;;;;;;;5.20;2.33;;;;;;;20.44;71.20;97576.69;5071443;28;20082;-79
2021/07/11 03:27:51;;;;;;;3.75;2.70;;;;;;;;;;5071316;28;20135;-79
2021/07/11 03:30:20;;;;;;;3.05;2.38;;;;;;;20.81;70.73;97563.84;5071299;28;20572;-79
2021/07/11 03:32:53;;;;;;;4.10;2.47;;;;;;;20.58;70.63;97557.50;5053532;28;20040;-78
2021/07/11 03:35:23;;;;;;;7.07;4.20;;;;;;;20.43;71.05;97555.59;5053119;28;20021;-78
2021/07/11 03:37:53;;;;;;;2.65;2.00;;;;;;;20.30;71.68;97553.00;5071452;28;20033;-79
2021/07/11 03:40:22;;;;;;;7.28;2.95;;;;;;;20.25;72.25;97558.84;5071079;28;20109;-79
2021/07/11 03:42:52;;;;;;;3.72;2.55;;;;;;;20.28;72.54;97558.13;5070628;28;20056;-78
2021/07/11 03:45:20;;;;;;;3.33;2.42;;;;;;;20.37;72.08;97563.44;5071195;28;20028;-78
2021/07/11 03:47:51;;;;;;;4.82;2.70;;;;;;;20.44;71.75;97560.00;5070953;28;20035;-78
2021/07/11 03:50:24;;;;;;;2.90;2.53;;;;;;;20.38;71.60;97564.25;5069654;28;20036;-78
2021/07/11 03:52:56;;;;;;;5.53;2.60;;;;;;;20.33;72.02;97556.25;5051063;28;20426;-78
2021/07/11 03:55:22;;;;;;;3.20;2.85;;;;;;;20.26;72.05;97568.81;5052347;28;20115;-78
2021/07/11 03:57:50;;;;;;;4.35;2.40;;;;;;;20.15;72.68;97570.56;5069874;28;20067;-78
2021/07/11 04:00:18;;;;;;;4.50;2.83;;;;;;;20.10;73.14;97570.84;5067440;28;20107;-79
2021/07/11 04:02:49;;;;;;;2.70;2.50;;;;;;;20.08;72.89;97562.06;5070589;28;20021;-78
2021/07/11 04:05:22;;;;;;;5.10;2.50;;;;;;;20.24;73.08;97575.88;5052985;28;20043;-78
2021/07/11 04:07:53;;;;;;;4.78;2.70;;;;;;;20.41;72.46;97569.09;5070739;28;20063;-78
2021/07/11 04:10:23;;;;;;;5.03;2.60;;;;;;;20.49;72.38;97571.63;5069292;28;20111;-80
2021/07/11 04:12:49;;;;;;;4.07;2.80;;;;;;;20.37;72.37;97570.97;5069267;28;20021;-79
2021/07/11 04:15:15;;;;;;;4.85;2.60;;;;;;;20.53;71.99;97566.13;5052467;28;20035;-78
2021/07/11 04:17:45;;;;;;;3.05;2.72;;;;;;;20.45;72.71;97579.09;5068878;28;20024;-80
2021/07/11 04:20:13;;;;;;;2.63;2.42;;;;;;;20.47;72.73;97581.50;5070359;28;20048;-79
2021/07/11 04:22:40;;;;;;;4.07;3.03;;;;;;;20.37;72.65;97576.53;5070464;28;20024;-79
2021/07/11 04:25:10;;;;;;;2.67;2.10;;;;;;;20.25;72.08;97574.72;5073128;28;20123;-78
2021/07/11 04:27:36;;;;;;;4.68;2.75;;;;;;;20.21;71.96;97582.97;5069315;28;20047;-80
2021/07/11 04:30:03;;;;;;;5.55;2.72;;;;;;;20.15;72.01;97591.97;5052614;28;20051;-79
2021/07/11 04:32:28;;;;;;;3.13;2.35;;;;;;;20.07;72.26;97577.16;5051613;28;20032;-78
2021/07/11 04:34:54;;;;;;;7.90;2.13;;;;;;;20.05;72.21;97582.25;5068416;28;20081;-78
2021/07/11 04:37:19;;;;;;;3.70;2.83;;;;;;;19.97;72.12;97579.69;5069187;28;20029;-77
2021/07/11 04:39:45;;;;;;;2.78;2.45;;;;;;;20.11;72.27;97580.78;5070981;28;20115;-80
2021/07/11 04:42:11;;;;;;;2.78;2.38;;;;;;;20.15;72.15;97586.41;5070560;28;20033;-78
2021/07/11 04:44:40;;;;;;;2.95;2.20;;;;;;;20.24;71.92;97590.56;5052025;28;20033;-78
2021/07/11 04:47:06;;;;;;;2.92;2.15;;;;;;;20.12;72.23;97592.69;5069837;28;20032;-79
2021/07/11 04:49:31;;;;;;;4.28;2.50;;;;;;;20.16;72.67;97599.13;5052118;28;20021;-79
2021/07/11 04:51:57;;;;;;;4.00;2.15;;;;;;;20.15;72.73;97601.09;5069655;28;20065;-80
2021/07/11 04:54:23;;;;;;;3.63;2.13;;;;;;;20.17;72.41;97606.31;5070263;28;20028;-80
2021/07/11 04:56:49;;;;;;;3.30;2.35;;;;;;;20.17;71.50;97607.09;5070496;28;20084;-79
2021/07/11 04:59:15;;;;;;;2.10;1.90;;;;;;;20.65;69.46;97593.72;5054002;28;20147;-78
2021/07/11 05:01:40;;;;;;;3.45;2.30;;;;;;;20.20;70.98;97594.47;5073587;28;20051;-79
2021/07/11 05:04:06;;;;;;;5.88;2.35;;;;;;;20.59;69.91;97596.03;5051991;28;20062;-79
2021/07/11 05:06:31;;;;;;;3.28;2.33;;;;;;;20.63;69.40;97596.91;5052057;28;20031;-79
2021/07/11 05:08:56;;;;;;;9.50;2.70;;;;;;;20.81;69.07;97602.75;5069640;28;20070;-78
2021/07/11 05:11:22;;;;;;;5.30;2.20;;;;;;;21.10;67.84;97598.53;5069407;28;20028;-81
2021/07/11 05:13:47;;;;;;;7.45;2.38;;;;;;;21.49;66.43;97599.91;5069913;28;20036;-81
2021/07/11 05:16:13;;;;;;;3.20;2.60;;;;;;;21.72;65.20;97608.19;5052115;28;20033;-80
2021/07/11 05:18:39;;;;;;;4.32;2.45;;;;;;;21.73;65.05;97615.38;5052888;28;20051;-82
2021/07/11 05:21:04;;;;;;;3.38;2.53;;;;;;;21.91;65.20;97622.03;5052183;28;20185;-82
2021/07/11 05:23:30;;;;;;;3.67;2.45;;;;;;;21.95;64.84;97628.47;5069424;28;20108;-78
2021/07/11 05:25:55;;;;;;;6.07;2.55;;;;;;;21.96;64.65;97641.19;5068305;28;20028;-78
2021/07/11 05:28:21;;;;;;;2.42;2.22;;;;;;;21.95;64.08;97628.47;5052903;28;20063;-79
2021/07/11 05:30:47;;;;;;;6.10;4.68;;;;;;;22.27;62.85;97635.22;5070349;28;20090;-78
2021/07/11 05:33:12;;;;;;;3.30;2.88;;;;;;;21.97;64.10;97636.41;5068471;28;20131;-77
2021/07/11 05:35:37;;;;;;;5.82;2.47;;;;;;;21.82;64.64;97635.41;5065867;28;20119;-77
2021/07/11 05:38:03;;;;;;;3.08;2.60;;;;;;;21.37;65.86;97641.88;5069036;28;20832;-78
2021/07/11 05:40:29;;;;;;;6.43;2.85;;;;;;;21.38;66.90;97642.69;5068675;28;20528;-79
2021/07/11 05:42:54;;;;;;;4.88;2.30;;;;;;;21.58;65.97;97641.41;5069842;28;20039;-77
2021/07/11 05:45:19;;;;;;;4.90;2.78;;;;;;;21.11;67.32;97639.84;5047283;28;20016;-77
2021/07/11 05:47:47;;;;;;;5.28;3.33;;;;;;;20.91;68.19;97641.09;5072823;28;20029;-76
2021/07/11 05:50:13;;;;;;;4.20;2.42;;;;;;;21.48;66.27;97634.50;5055357;28;20032;-84
2021/07/11 05:52:39;;;;;;;4.72;3.15;;;;;;;21.56;65.42;97640.97;5061828;28;20008;-83
2021/07/11 05:55:05;;;;;;;4.97;2.67;;;;;;;21.22;66.92;97634.47;5074942;28;20111;-83
2021/07/11 05:57:31;;;;;;;6.18;2.72;;;;;;;21.35;66.14;97638.69;5075354;28;20039;-84
2021/07/11 05:59:56;;;;;;;3.25;2.40;;;;;;;21.45;65.64;97626.91;5079221;28;20016;-83
2021/07/11 06:02:22;;;;;;;4.90;3.38;;;;;;;21.75;64.72;97629.72;5062813;28;20508;-80
2021/07/11 06:04:48;;;;;;;4.68;2.78;;;;;;;22.02;64.54;97627.75;5072834;28;20012;-83
2021/07/11 06:07:16;;;;;;;4.40;3.00;;;;;;;22.12;63.90;97629.84;5057307;28;20103;-84
2021/07/11 06:09:43;;;;;;;4.10;3.15;;;;;;;22.38;62.76;97629.78;5073763;28;20478;-78
2021/07/11 06:12:09;;;;;;;7.70;4.20;;;;;;;22.38;62.63;97627.81;5053917;28;20420;-81
2021/07/11 06:14:37;;;;;;;3.30;2.60;;;;;;;22.62;61.91;97634.81;5054121;28;20032;-84
2021/07/11 06:17:03;;;;;;;3.65;2.58;;;;;;;22.79;61.14;97630.66;5073044;28;20016;-79
2021/07/11 06:19:29;;;;;;;3.40;2.47;;;;;;;22.82;60.84;97632.69;5072699;28;20547;-81
2021/07/11 06:21:54;;;;;;;3.42;2.90;;;;;;;22.81;60.18;97631.06;5072776;28;20376;-80
2021/07/11 06:24:20;;;;;;;6.00;3.72;;;;;;;23.01;59.39;97628.88;5076466;28;20033;-81
2021/07/11 06:26:46;;;;;;;5.85;3.13;;;;;;;22.91;59.42;97627.59;5045438;28;20112;-80
2021/07/11 06:29:11;;;;;;;5.40;3.88;;;;;;;22.86;60.41;97627.94;5061975;28;20124;-79
2021/07/11 06:31:37;;;;;;;18.30;9.82;;;;;;;23.28;58.33;97628.31;5044463;28;20021;-80
2021/07/11 06:34:02;;;;;;;4.10;2.78;;;;;;;23.42;58.05;97628.47;5045989;28;20039;-81
2021/07/11 06:36:31;;;;;;;2.30;2.10;;;;;;;23.54;58.16;97630.13;5041755;28;20087;-79
2021/07/11 06:38:56;;;;;;;4.38;2.50;;;;;;;23.70;58.32;97632.63;5044492;28;20420;-82
2021/07/11 06:41:22;;;;;;;13.30;7.20;;;;;;;23.86;57.16;97628.34;5066162;28;20024;-80
2021/07/11 06:43:47;;;;;;;4.80;2.92;;;;;;;23.67;57.96;97633.41;5062703;28;20029;-82
2021/07/11 06:46:13;;;;;;;4.40;2.80;;;;;;;24.23;56.68;97625.38;5049939;28;20092;-82
2021/07/11 06:48:38;;;;;;;2.95;2.55;;;;;;;24.42;56.94;97611.06;5052432;28;20054;-76
2021/07/11 06:51:04;;;;;;;3.00;2.40;;;;;;;24.71;54.38;97616.75;5053295;28;20024;-75
2021/07/11 06:53:29;;;;;;;2.42;2.22;;;;;;;25.08;53.09;97617.22;5054334;28;20017;-77
2021/07/11 06:55:55;;;;;;;2.90;2.70;;;;;;;24.89;54.15;97621.19;5073344;28;20032;-75
2021/07/11 06:58:20;;;;;;;4.72;2.58;;;;;;;24.85;53.02;97622.38;5070556;28;20393;-75
2021/07/11 07:00:46;;;;;;;3.72;2.33;;;;;;;25.09;53.27;97618.81;5072172;28;20029;-74
2021/07/11 07:03:11;;;;;;;4.63;2.65;;;;;;;25.70;52.04;97625.22;5054525;28;20029;-74
2021/07/11 07:05:37;;;;;;;7.22;2.88;;;;;;;25.98;50.46;97619.53;5073506;28;20051;-76
2021/07/11 07:08:02;;;;;;;5.00;2.67;;;;;;;25.16;52.59;97613.22;5072140;28;20131;-74
2021/07/11 07:10:28;;;;;;;3.50;2.38;;;;;;;25.64;51.52;97615.63;5073047;28;20032;-73
2021/07/11 07:12:53;;;;;;;3.45;2.30;;;;;;;26.03;50.75;97627.56;5072379;28;20024;-78
2021/07/11 07:15:22;;;;;;;2.45;2.10;;;;;;;26.28;50.44;97611.44;5073001;28;20039;-78
2021/07/11 07:17:47;;;;;;;5.82;2.10;;;;;;;25.90;49.94;97623.59;5066441;28;20032;-79
2021/07/11 07:20:14;;;;;;;4.20;2.25;;;;;;;26.23;49.49;97619.47;5083659;28;20496;-77
2021/07/11 07:22:40;;;;;;;4.20;2.22;;;;;;;26.17;48.60;97615.50;5072786;28;20109;-80
2021/07/11 07:25:14;;;;;;;5.97;2.50;;;;;;;26.89;47.80;97626.78;5053408;28;20503;-79
2021/07/11 07:27:41;;;;;;;4.65;2.50;;;;;;;27.36;45.52;97624.44;5054451;28;20028;-79
2021/07/11 07:30:08;;;;;;;3.28;1.70;;;;;;;27.42;45.80;97625.59;5072803;28;20161;-79
2021/07/11 07:32:34;;;;;;;3.33;2.55;;;;;;;27.16;45.60;97627.00;5070297;28;20426;-79
2021/07/11 07:34:59;;;;;;;2.85;2.17;;;;;;;27.64;45.12;97632.66;5071448;28;20115;-78
2021/07/11 07:37:26;;;;;;;2.65;2.25;;;;;;;26.91;45.84;97632.00;5054441;28;20059;-79
2021/07/11 07:39:52;;;;;;;2.63;1.90;;;;;;;27.08;45.60;97623.47;5071740;28;20032;-79
2021/07/11 07:42:17;;;;;;;2.63;2.13;;;;;;;26.97;45.90;97624.75;5054463;28;20035;-80
2021/07/11 07:44:43;;;;;;;5.82;3.58;;;;;;;26.91;45.94;97634.81;5054660;28;20024;-79
2021/07/11 07:47:08;;;;;;;3.42;2.42;;;;;;;26.71;45.53;97622.47;5070923;28;20031;-79
2021/07/11 07:49:34;;;;;;;3.22;2.20;;;;;;;26.98;46.13;97627.13;5071766;28;20036;-78
2021/07/11 07:51:59;;;;;;;2.35;1.92;;;;;;;27.44;44.03;97632.41;5072374;28;20485;-78
2021/07/11 07:54:25;;;;;;;2.92;1.90;;;;;;;27.53;43.80;97632.75;5071992;28;20024;-77
2021/07/11 07:56:50;;;;;;;2.45;2.13;;;;;;;27.41;42.92;97624.78;5072838;28;20021;-78
2021/07/11 07:59:15;;;;;;;2.70;2.15;;;;;;;27.91;42.91;97632.81;5069899;28;20028;-79
2021/07/11 08:01:41;;;;;;;3.85;1.90;;;;;;;28.37;41.63;97638.72;5071711;28;20025;-80
2021/07/11 08:04:07;;;;;;;6.30;1.80;;;;;;;27.98;41.79;97638.31;5054241;28;20389;-79
2021/07/11 08:06:33;;;;;;;1.95;1.63;;;;;;;28.39;41.55;97641.09;5071696;28;20032;-79
2021/07/11 08:08:59;;;;;;;5.10;2.20;;;;;;;28.59;40.52;97648.50;5072224;28;20102;-77
2021/07/11 08:11:24;;;;;;;3.80;1.60;;;;;;;28.82;39.65;97635.75;5054657;28;20094;-78
2021/07/11 08:13:50;;;;;;;3.47;1.80;;;;;;;29.38;38.82;97636.94;5070140;28;20025;-78
2021/07/11 08:16:15;;;;;;;4.43;1.52;;;;;;;29.87;37.40;97630.47;5071221;28;20029;-78
2021/07/11 08:18:41;;;;;;;2.63;1.63;;;;;;;29.46;38.04;97625.13;5053473;28;20074;-78
2021/07/11 08:21:06;;;;;;;2.03;1.60;;;;;;;28.93;38.51;97625.13;5069979;28;20067;-78
2021/07/11 08:23:32;;;;;;;2.38;1.65;;;;;;;29.06;39.16;97629.75;5070751;28;20033;-79
2021/07/11 08:25:58;;;;;;;2.05;1.80;;;;;;;29.03;38.68;97635.44;5071640;28;20028;-79
2021/07/11 08:28:23;;;;;;;2.35;1.30;;;;;;;29.55;38.15;97616.91;5070130;28;20399;-79
2021/07/11 08:30:49;;;;;;;3.05;1.02;;;;;;;29.14;37.63;97630.44;5052387;28;20036;-79
2021/07/11 08:33:14;;;;;;;3.40;1.48;;;;;;;28.89;38.12;97625.19;5071221;28;20046;-79
2021/07/11 08:35:40;;;;;;;2.10;1.25;;;;;;;28.64;38.56;97624.69;5071480;28;20384;-77
2021/07/11 08:38:06;;;;;;;6.03;1.25;;;;;;;28.23;39.72;97624.00;5053592;28;20036;-79
2021/07/11 08:40:35;;;;;;;4.75;1.20;;;;;;;28.48;38.88;97622.50;5053713;28;20050;-78
2021/07/11 08:43:03;;;;;;;1.50;1.40;;;;;;;28.38;39.70;97629.06;5053848;28;20031;-78
2021/07/11 08:45:29;;;;;;;5.97;1.50;;;;;;;28.59;39.22;97613.91;5071292;28;20020;-78
2021/07/11 08:47:54;;;;;;;5.30;1.42;;;;;;;28.91;39.08;97610.69;5071669;28;20102;-77
2021/07/11 08:50:19;;;;;;;3.03;1.25;;;;;;;29.43;38.23;97620.34;5070240;28;20044;-77
2021/07/11 08:52:46;;;;;;;1.13;1.00;;;;;;;28.38;40.46;97629.06;5071014;28;20036;-78
2021/07/11 08:55:20;;;;;;;1.98;1.42;;;;;;;28.45;40.81;97616.91;5071244;28;20101;-77
2021/07/11 08:58:00;;;;;;;3.25;1.27;;;;;;;28.09;41.22;97616.56;5053156;28;20012;-77
2021/07/11 09:00:34;;;;;;;1.77;1.08;;;;;;;27.91;41.48;97618.75;5052202;28;20042;-77
2021/07/11 09:03:01;;;;;;;4.55;1.50;;;;;;;28.41;41.09;97619.75;5052037;28;20036;-77
2021/07/11 09:05:31;;;;;;;1.65;1.10;;;;;;;28.09;40.51;97622.19;5053432;28;20029;-76
2021/07/11 09:07:59;;;;;;;1.77;1.38;;;;;;;27.83;41.08;97620.00;5046828;28;20039;-77
2021/07/11 09:10:32;;;;;;;3.60;1.98;;;;;;;28.02;41.23;97610.97;5070661;28;20041;-78
2021/07/11 09:12:59;;;;;;;1.77;1.50;;;;;;;28.45;40.22;97612.06;5052507;28;20024;-77
2021/07/11 09:15:30;;;;;;;0.95;0.80;;;;;;;28.15;40.36;97604.44;5071022;28;20473;-78
2021/07/11 09:17:56;;;;;;;4.90;1.40;;;;;;;29.07;39.00;97591.91;5052989;28;20032;-77
2021/07/11 09:20:21;;;;;;;2.80;1.02;;;;;;;28.44;39.65;97604.88;5051877;28;20052;-78
2021/07/11 09:23:04;;;;;;;1.63;1.17;;;;;;;27.77;40.72;97610.44;5053206;28;20141;-79
2021/07/11 09:25:30;;;;;;;1.67;0.98;;;;;;;27.51;41.79;97603.44;5052823;28;20032;-79
2021/07/11 09:27:56;;;;;;;1.23;1.13;;;;;;;27.37;42.16;97614.81;5052964;28;20052;-79
2021/07/11 09:30:22;;;;;;;0.88;0.80;;;;;;;27.19;41.42;97614.16;5052871;28;20048;-76
2021/07/11 09:32:53;;;;;;;2.00;0.98;;;;;;;27.56;41.31;97606.63;5053050;28;20031;-77
2021/07/11 09:35:24;;;;;;;1.27;0.93;;;;;;;27.79;41.55;97613.63;5053850;28;20093;-79
2021/07/11 09:37:54;;;;;;;3.50;1.38;;;;;;;27.76;40.18;97597.59;5079759;28;20027;-80
2021/07/11 09:40:22;;;;;;;1.80;1.67;;;;;;;28.21;39.82;97599.13;5054984;28;20047;-78
2021/07/11 09:42:50;;;;;;;0.90;0.90;;;;;;;28.53;39.53;97605.16;5052035;28;20479;-77
2021/07/11 09:45:29;;;;;;;5.60;1.23;;;;;;;27.83;40.04;97591.91;5070883;28;20032;-81
2021/07/11 09:48:05;;;;;;;6.22;1.30;;;;;;;27.28;41.44;97592.00;5070586;28;20017;-78
2021/07/11 09:50:30;;;;;;;1.60;1.40;;;;;;;27.33;41.63;97597.97;5052772;28;20020;-78
2021/07/11 09:52:58;;;;;;;3.35;0.85;;;;;;;27.42;41.78;97600.31;5070456;28;20033;-78
2021/07/11 09:55:29;;;;;;;1.63;0.80;;;;;;;27.04;42.18;97579.75;5053743;28;20072;-78
2021/07/11 09:57:59;;;;;;;2.05;1.25;;;;;;;27.22;42.47;97580.41;5070506;28;20059;-79
2021/07/11 10:00:39;;;;;;;2.63;0.70;;;;;;;27.97;40.52;97584.13;5052783;28;20028;-78
2021/07/11 10:03:06;;;;;;;0.75;0.75;;;;;;;28.79;39.31;97597.19;5071548;28;20020;-78
2021/07/11 10:05:34;;;;;;;2.35;0.77;;;;;;;28.53;39.84;97596.72;5071631;28;20481;-79
2021/07/11 10:07:59;;;;;;;0.80;0.80;;;;;;;29.03;39.13;97590.38;5058187;28;20031;-77
2021/07/11 10:10:31;;;;;;;3.20;0.90;;;;;;;29.10;38.94;97579.75;5062508;28;20025;-78
2021/07/11 10:12:58;;;;;;;5.28;2.38;;;;;;;29.14;38.59;97588.97;5081827;28;20033;-77
2021/07/11 10:15:26;;;;;;;24.38;19.25;;;;;;;29.30;38.35;97571.44;5062228;28;20033;-78
2021/07/11 10:17:57;;;;;;;9.95;3.03;;;;;;;28.68;39.27;97597.31;5070173;28;20021;-79
2021/07/11 10:20:30;;;;;;;5.78;3.72;;;;;;;28.92;38.94;97598.19;5053426;28;20029;-78
2021/07/11 10:22:56;;;;;;;2.58;1.05;;;;;;;28.99;38.92;97595.25;5070507;28;20541;-79
2021/07/11 10:25:24;;;;;;;0.90;0.90;;;;;;;28.50;40.04;97591.91;5051444;28;20113;-78
2021/07/11 10:28:04;;;;;;;2.95;1.60;;;;;;;28.67;39.63;97598.53;5052029;28;20043;-78
2021/07/11 10:30:30;;;;;;;2.72;1.13;;;;;;;28.37;39.31;97590.88;5052191;28;20546;-77
2021/07/11 10:33:05;;;;;;;3.60;1.15;;;;;;;28.01;40.00;97592.47;5054766;28;20033;-78
2021/07/11 10:35:31;;;;;;;1.02;0.95;;;;;;;28.39;39.07;97601.69;5055806;28;20469;-77
2021/07/11 10:37:56;;;;;;;1.23;1.08;;;;;;;28.08;40.60;97603.69;5073864;28;20040;-78
2021/07/11 10:40:29;;;;;;;1.75;1.17;;;;;;;28.18;40.22;97605.59;5073247;28;20447;-79
2021/07/11 10:42:54;;;;;;;1.48;0.98;;;;;;;28.49;39.67;97590.31;5055699;28;20070;-77
2021/07/11 10:45:26;;;;;;;1.27;0.65;;;;;;;28.73;39.23;97604.50;5075898;28;20016;-78
2021/07/11 10:48:04;;;;;;;1.20;1.10;;;;;;;28.73;38.52;97598.84;5061038;28;20028;-78
2021/07/11 10:50:31;;;;;;;1.10;0.80;;;;;;;28.33;39.57;97584.50;5055871;28;20581;-78
2021/07/11 10:52:59;;;;;;;0.98;0.88;;;;;;;28.25;39.68;97577.38;5056165;28;20032;-77
2021/07/11 10:55:34;;;;;;;1.00;0.90;;;;;;;28.64;38.47;97580.44;5055866;28;20029;-78
2021/07/11 10:58:19;;;;;;;1.87;1.07;;;;;;;28.66;38.47;97578.03;5073606;28;20028;-77
2021/07/11 11:00:46;;;;;;;2.53;1.10;;;;;;;28.58;38.14;97587.78;5072237;28;20293;-77
2021/07/11 11:03:20;;;;;;;1.75;1.45;;;;;;;28.77;38.15;97582.72;5048468;28;20050;-75
2021/07/11 11:05:50;;;;;;;3.25;1.60;;;;;;;29.13;37.19;97578.13;5048389;28;20032;-76
2021/07/11 11:08:19;;;;;;;2.85;1.05;;;;;;;29.22;37.00;97584.84;5051552;28;20032;-78
2021/07/11 11:10:46;;;;;;;2.63;1.50;;;;;;;28.16;38.40;97577.88;5050629;28;20021;-75
2021/07/11 11:13:19;;;;;;;1.45;1.35;;;;;;;27.83;39.37;97591.91;5052258;28;20028;-75
2021/07/11 11:15:46;;;;;;;2.08;1.27;;;;;;;28.15;39.14;97583.94;5053179;28;20028;-76
2021/07/11 11:18:30;;;;;;;4.10;1.40;;;;;;;28.83;37.59;97581.81;5050896;28;20025;-75
2021/07/11 11:21:04;;;;;;;2.05;1.30;;;;;;;28.52;38.04;97578.22;5071119;28;20112;-76
2021/07/11 11:23:33;;;;;;;1.85;1.73;;;;;;;28.68;37.95;97581.22;5060138;28;20040;-78
2021/07/11 11:25:59;;;;;;;1.88;1.27;;;;;;;28.56;38.52;97572.53;5061219;28;20020;-76
2021/07/11 11:28:27;;;;;;;7.38;1.00;;;;;;;28.38;38.28;97567.13;5059380;28;20021;-77
2021/07/11 11:31:04;;;;;;;1.80;1.67;;;;;;;28.78;38.54;97570.22;5062648;28;20055;-75
2021/07/11 11:33:29;;;;;;;3.22;1.60;;;;;;;29.22;37.56;97561.47;5068752;28;20035;-75
2021/07/11 11:35:55;;;;;;;1.95;1.20;;;;;;;29.48;37.59;97559.81;5070495;28;20381;-77